sensor_id;sensor_type;location;lat;lon;timestamp;P1;P2;P0
23240;PMS7003;11789;53.482;9.862;2022-09-03T00:02:34;2.00;2.00;1.50
23240;PMS7003;11789;53.482;9.862;2022-09-03T00:08:00;2.00;2.00;2.00
23240;PMS7003;11789;53.482;9.862;2022-09-03T00:10:36;2.50;2.50;2.00
23240;PMS7003;11789;53.482;9.862;2022-09-03T00:13:08;2.00;2.00;1.75
23240;PMS7003;11789;53.482;9.862;2022-09-03T00:15:40;5.00;3.00;3.00
23240;PMS7003;11789;53.482;9.862;2022-09-03T00:18:11;2.25;2.25;2.00
23240;PMS7003;11789;53.482;9.862;2022-09-03T00:20:41;3.00;2.00;2.00
23240;PMS7003;11789;53.482;9.862;2022-09-03T00:23:15;2.00;2.00;2.00
23240;PMS7003;11789;53.482;9.862;2022-09-03T00:25:47;2.00;2.00;2.00
23240;PMS7003;11789;53.482;9.862;2022-09-03T00:28:19;2.00;2.00;1.75
23240;PMS7003;11789;53.482;9.862;2022-09-03T00:30:50;2.25;2.25;2.00
23240;PMS7003;11789;53.482;9.862;2022-09-03T00:33:31;1.75;1.00;1.00
23240;PMS7003;11789;53.482;9.862;2022-09-03T00:38:28;1.00;1.00;1.00
23240;PMS7003;11789;53.482;9.862;2022-09-03T00:41:30;2.00;2.00;2.00
23240;PMS7003;11789;53.482;9.862;2022-09-03T00:46:35;1.50;1.50;1.25
23240;PMS7003;11789;53.482;9.862;2022-09-03T00:51:49;2.00;2.00;2.00
23240;PMS7003;11789;53.482;9.862;2022-09-03T00:59:38;2.00;2.00;2.00
23240;PMS7003;11789;53.482;9.862;2022-09-03T01:02:27;2.00;2.00;2.00
23240;PMS7003;11789;53.482;9.862;2022-09-03T01:13:01;2.00;2.00;2.00
23240;PMS7003;11789;53.482;9.862;2022-09-03T01:19:04;3.75;2.75;2.25
23240;PMS7003;11789;53.482;9.862;2022-09-03T01:27:48;2.00;2.00;2.00
23240;PMS7003;11789;53.482;9.862;2022-09-03T01:30:39;2.50;2.50;2.00
23240;PMS7003;11789;53.482;9.862;2022-09-03T01:38:44;2.00;2.00;2.00
23240;PMS7003;11789;53.482;9.862;2022-09-03T01:47:26;2.00;2.00;2.00
23240;PMS7003;11789;53.482;9.862;2022-09-03T01:50:02;3.00;3.00;2.00
23240;PMS7003;11789;53.482;9.862;2022-09-03T01:57:42;2.50;1.00;1.00
23240;PMS7003;11789;53.482;9.862;2022-09-03T02:00:14;2.00;2.00;2.00
23240;PMS7003;11789;53.482;9.862;2022-09-03T02:02:44;2.00;2.00;1.00
23240;PMS7003;11789;53.482;9.862;2022-09-03T02:07:56;2.50;2.00;1.75
23240;PMS7003;11789;53.482;9.862;2022-09-03T02:10:26;2.00;2.00;1.75
23240;PMS7003;11789;53.482;9.862;2022-09-03T02:12:57;3.00;3.00;3.00
23240;PMS7003;11789;53.482;9.862;2022-09-03T02:15:29;2.75;2.75;2.00
23240;PMS7003;11789;53.482;9.862;2022-09-03T02:17:57;2.00;2.00;2.00
23240;PMS7003;11789;53.482;9.862;2022-09-03T02:20:29;2.00;2.00;2.00
23240;PMS7003;11789;53.482;9.862;2022-09-03T02:22:55;2.00;2.00;1.50
23240;PMS7003;11789;53.482;9.862;2022-09-03T02:25:23;2.00;2.00;2.00
23240;PMS7003;11789;53.482;9.862;2022-09-03T02:27:54;2.00;2.00;2.00
23240;PMS7003;11789;53.482;9.862;2022-09-03T02:30:20;2.00;2.00;2.00
23240;PMS7003;11789;53.482;9.862;2022-09-03T02:32:45;2.50;2.50;1.75
23240;PMS7003;11789;53.482;9.862;2022-09-03T02:35:11;1.00;1.00;1.00
23240;PMS7003;11789;53.482;9.862;2022-09-03T02:37:37;2.00;2.00;1.25
23240;PMS7003;11789;53.482;9.862;2022-09-03T02:40:03;3.00;2.50;2.00
23240;PMS7003;11789;53.482;9.862;2022-09-03T02:42:34;2.00;2.00;2.00
23240;PMS7003;11789;53.482;9.862;2022-09-03T02:45:20;3.25;2.75;2.00
23240;PMS7003;11789;53.482;9.862;2022-09-03T02:47:52;2.00;2.00;2.00
23240;PMS7003;11789;53.482;9.862;2022-09-03T02:50:21;1.25;1.25;1.00
23240;PMS7003;11789;53.482;9.862;2022-09-03T02:52:47;3.00;3.00;2.00
23240;PMS7003;11789;53.482;9.862;2022-09-03T02:55:12;2.00;2.00;2.00
23240;PMS7003;11789;53.482;9.862;2022-09-03T02:57:38;1.25;1.25;1.25
23240;PMS7003;11789;53.482;9.862;2022-09-03T03:00:03;1.25;1.25;1.25
23240;PMS7003;11789;53.482;9.862;2022-09-03T03:02:29;2.25;2.25;2.00
23240;PMS7003;11789;53.482;9.862;2022-09-03T03:04:54;3.00;3.00;3.00
23240;PMS7003;11789;53.482;9.862;2022-09-03T03:07:20;2.00;2.00;1.00
23240;PMS7003;11789;53.482;9.862;2022-09-03T03:09:45;2.00;2.00;2.00
23240;PMS7003;11789;53.482;9.862;2022-09-03T03:12:11;2.25;2.25;2.00
23240;PMS7003;11789;53.482;9.862;2022-09-03T03:14:36;2.25;2.25;2.00
23240;PMS7003;11789;53.482;9.862;2022-09-03T03:17:02;6.25;4.00;3.00
23240;PMS7003;11789;53.482;9.862;2022-09-03T03:19:27;3.00;3.00;2.00
23240;PMS7003;11789;53.482;9.862;2022-09-03T03:21:53;4.75;3.00;2.50
23240;PMS7003;11789;53.482;9.862;2022-09-03T03:24:18;4.00;3.00;2.75
23240;PMS7003;11789;53.482;9.862;2022-09-03T03:26:44;3.00;3.00;3.00
23240;PMS7003;11789;53.482;9.862;2022-09-03T03:29:13;2.75;2.75;2.00
23240;PMS7003;11789;53.482;9.862;2022-09-03T03:31:42;2.25;2.25;2.00
23240;PMS7003;11789;53.482;9.862;2022-09-03T03:34:07;2.75;2.75;2.75
23240;PMS7003;11789;53.482;9.862;2022-09-03T03:36:33;4.00;2.00;2.00
23240;PMS7003;11789;53.482;9.862;2022-09-03T03:39:00;2.00;2.00;2.00
23240;PMS7003;11789;53.482;9.862;2022-09-03T03:41:27;4.00;2.00;2.00
23240;PMS7003;11789;53.482;9.862;2022-09-03T03:43:56;3.00;3.00;2.00
23240;PMS7003;11789;53.482;9.862;2022-09-03T03:46:23;3.00;3.00;2.75
23240;PMS7003;11789;53.482;9.862;2022-09-03T03:48:52;2.00;2.00;2.00
23240;PMS7003;11789;53.482;9.862;2022-09-03T03:51:18;2.00;2.00;2.00
23240;PMS7003;11789;53.482;9.862;2022-09-03T03:53:44;2.25;2.25;2.00
23240;PMS7003;11789;53.482;9.862;2022-09-03T03:56:11;1.75;1.75;1.00
23240;PMS7003;11789;53.482;9.862;2022-09-03T03:58:38;2.25;2.25;2.00
23240;PMS7003;11789;53.482;9.862;2022-09-03T04:01:41;2.00;2.00;2.00
23240;PMS7003;11789;53.482;9.862;2022-09-03T04:03:59;3.00;3.00;2.50
23240;PMS7003;11789;53.482;9.862;2022-09-03T04:06:25;2.50;2.50;2.00
23240;PMS7003;11789;53.482;9.862;2022-09-03T04:08:51;2.75;2.75;2.00
23240;PMS7003;11789;53.482;9.862;2022-09-03T04:11:18;1.75;1.75;1.50
23240;PMS7003;11789;53.482;9.862;2022-09-03T04:13:45;2.50;2.50;2.25
23240;PMS7003;11789;53.482;9.862;2022-09-03T04:18:39;2.75;2.75;2.50
23240;PMS7003;11789;53.482;9.862;2022-09-03T04:21:09;2.25;2.25;2.25
23240;PMS7003;11789;53.482;9.862;2022-09-03T04:23:40;2.25;2.25;2.25
23240;PMS7003;11789;53.482;9.862;2022-09-03T04:26:07;2.00;2.00;2.00
23240;PMS7003;11789;53.482;9.862;2022-09-03T04:28:34;2.00;2.00;2.00
23240;PMS7003;11789;53.482;9.862;2022-09-03T04:31:01;2.25;2.25;2.00
23240;PMS7003;11789;53.482;9.862;2022-09-03T04:33:28;3.25;3.25;3.00
23240;PMS7003;11789;53.482;9.862;2022-09-03T04:38:52;3.00;3.00;2.25
23240;PMS7003;11789;53.482;9.862;2022-09-03T04:41:19;2.00;2.00;1.75
23240;PMS7003;11789;53.482;9.862;2022-09-03T04:43:49;2.00;2.00;2.00
23240;PMS7003;11789;53.482;9.862;2022-09-03T04:46:15;2.50;2.50;2.50
23240;PMS7003;11789;53.482;9.862;2022-09-03T04:48:41;4.00;2.75;2.00
23240;PMS7003;11789;53.482;9.862;2022-09-03T04:51:11;2.00;2.00;1.75
23240;PMS7003;11789;53.482;9.862;2022-09-03T04:53:42;2.00;2.00;2.00
23240;PMS7003;11789;53.482;9.862;2022-09-03T04:56:13;3.00;3.00;2.75
23240;PMS7003;11789;53.482;9.862;2022-09-03T04:58:44;5.00;3.00;3.00
23240;PMS7003;11789;53.482;9.862;2022-09-03T05:01:19;3.25;3.25;3.00
23240;PMS7003;11789;53.482;9.862;2022-09-03T05:03:47;3.00;3.00;3.00
23240;PMS7003;11789;53.482;9.862;2022-09-03T05:06:13;2.50;2.50;2.50
23240;PMS7003;11789;53.482;9.862;2022-09-03T05:08:41;3.00;2.75;2.00
23240;PMS7003;11789;53.482;9.862;2022-09-03T05:11:08;3.00;3.00;2.50
23240;PMS7003;11789;53.482;9.862;2022-09-03T05:13:34;4.50;3.75;2.75
23240;PMS7003;11789;53.482;9.862;2022-09-03T05:16:04;4.00;3.75;2.75
23240;PMS7003;11789;53.482;9.862;2022-09-03T05:18:31;3.25;3.25;2.75
23240;PMS7003;11789;53.482;9.862;2022-09-03T05:21:09;1.75;1.75;1.75
23240;PMS7003;11789;53.482;9.862;2022-09-03T05:23:37;2.25;2.25;2.00
23240;PMS7003;11789;53.482;9.862;2022-09-03T05:26:05;3.00;3.00;2.25
23240;PMS7003;11789;53.482;9.862;2022-09-03T05:28:33;3.00;3.00;2.50
23240;PMS7003;11789;53.482;9.862;2022-09-03T05:31:04;3.00;3.00;2.75
23240;PMS7003;11789;53.482;9.862;2022-09-03T05:33:34;2.00;2.00;2.00
23240;PMS7003;11789;53.482;9.862;2022-09-03T05:36:12;2.00;2.00;2.00
23240;PMS7003;11789;53.482;9.862;2022-09-03T05:38:40;2.00;2.00;2.00
23240;PMS7003;11789;53.482;9.862;2022-09-03T05:41:06;3.00;3.00;3.00
23240;PMS7003;11789;53.482;9.862;2022-09-03T05:43:34;2.00;2.00;2.00
23240;PMS7003;11789;53.482;9.862;2022-09-03T05:46:01;2.75;2.75;2.25
23240;PMS7003;11789;53.482;9.862;2022-09-03T05:48:45;4.00;3.25;2.25
23240;PMS7003;11789;53.482;9.862;2022-09-03T05:51:12;4.50;3.00;3.00
23240;PMS7003;11789;53.482;9.862;2022-09-03T05:53:40;2.00;2.00;1.75
23240;PMS7003;11789;53.482;9.862;2022-09-03T05:56:09;2.00;2.00;2.00
23240;PMS7003;11789;53.482;9.862;2022-09-03T05:58:36;2.00;2.00;2.00
23240;PMS7003;11789;53.482;9.862;2022-09-03T06:03:41;2.25;2.25;2.25
23240;PMS7003;11789;53.482;9.862;2022-09-03T06:06:07;2.00;2.00;2.00
23240;PMS7003;11789;53.482;9.862;2022-09-03T06:08:34;2.00;2.00;1.00
23240;PMS7003;11789;53.482;9.862;2022-09-03T06:11:01;3.00;3.00;2.00
23240;PMS7003;11789;53.482;9.862;2022-09-03T06:13:30;2.25;2.25;2.00
23240;PMS7003;11789;53.482;9.862;2022-09-03T06:15:57;3.00;3.00;2.50
23240;PMS7003;11789;53.482;9.862;2022-09-03T06:18:24;2.50;2.00;2.00
23240;PMS7003;11789;53.482;9.862;2022-09-03T06:20:54;2.25;2.25;2.00
23240;PMS7003;11789;53.482;9.862;2022-09-03T06:23:21;2.25;2.25;2.00
23240;PMS7003;11789;53.482;9.862;2022-09-03T06:25:47;3.75;2.75;2.00
23240;PMS7003;11789;53.482;9.862;2022-09-03T06:28:12;2.75;2.75;2.00
23240;PMS7003;11789;53.482;9.862;2022-09-03T06:30:38;2.25;2.25;2.00
23240;PMS7003;11789;53.482;9.862;2022-09-03T06:33:03;4.00;4.00;3.00
23240;PMS7003;11789;53.482;9.862;2022-09-03T06:35:29;4.75;3.25;2.75
23240;PMS7003;11789;53.482;9.862;2022-09-03T06:37:54;2.00;2.00;2.00
23240;PMS7003;11789;53.482;9.862;2022-09-03T06:40:20;3.50;3.50;3.00
23240;PMS7003;11789;53.482;9.862;2022-09-03T06:42:54;2.25;2.25;2.00
23240;PMS7003;11789;53.482;9.862;2022-09-03T06:45:28;4.00;3.00;2.00
23240;PMS7003;11789;53.482;9.862;2022-09-03T06:47:56;2.25;2.25;2.00
23240;PMS7003;11789;53.482;9.862;2022-09-03T06:50:21;2.00;2.00;2.00
23240;PMS7003;11789;53.482;9.862;2022-09-03T06:52:51;2.75;2.75;2.50
23240;PMS7003;11789;53.482;9.862;2022-09-03T06:55:19;2.50;2.50;2.00
23240;PMS7003;11789;53.482;9.862;2022-09-03T06:57:45;2.00;2.00;2.00
23240;PMS7003;11789;53.482;9.862;2022-09-03T07:00:11;2.00;2.00;2.00
23240;PMS7003;11789;53.482;9.862;2022-09-03T07:02:38;2.75;2.75;2.00
23240;PMS7003;11789;53.482;9.862;2022-09-03T07:05:06;2.00;2.00;2.00
23240;PMS7003;11789;53.482;9.862;2022-09-03T07:07:32;3.00;3.00;2.00
23240;PMS7003;11789;53.482;9.862;2022-09-03T07:09:58;1.50;1.50;1.00
23240;PMS7003;11789;53.482;9.862;2022-09-03T07:12:23;4.00;4.00;3.00
23240;PMS7003;11789;53.482;9.862;2022-09-03T07:14:49;3.00;3.00;2.00
23240;PMS7003;11789;53.482;9.862;2022-09-03T07:17:15;3.00;3.00;3.00
23240;PMS7003;11789;53.482;9.862;2022-09-03T07:19:40;4.00;4.00;3.00
23240;PMS7003;11789;53.482;9.862;2022-09-03T07:22:05;3.00;3.00;3.00
23240;PMS7003;11789;53.482;9.862;2022-09-03T07:24:32;2.75;2.75;2.00
23240;PMS7003;11789;53.482;9.862;2022-09-03T07:26:57;2.00;2.00;2.00
23240;PMS7003;11789;53.482;9.862;2022-09-03T07:29:23;2.00;2.00;2.00
23240;PMS7003;11789;53.482;9.862;2022-09-03T07:31:49;2.00;2.00;2.00
23240;PMS7003;11789;53.482;9.862;2022-09-03T07:34:15;2.50;2.50;2.00
23240;PMS7003;11789;53.482;9.862;2022-09-03T07:36:44;2.00;2.00;2.00
23240;PMS7003;11789;53.482;9.862;2022-09-03T07:39:11;3.00;3.00;2.50
23240;PMS7003;11789;53.482;9.862;2022-09-03T07:41:38;2.75;2.75;2.00
23240;PMS7003;11789;53.482;9.862;2022-09-03T07:44:11;3.00;3.00;2.50
23240;PMS7003;11789;53.482;9.862;2022-09-03T07:46:43;3.75;3.75;3.25
23240;PMS7003;11789;53.482;9.862;2022-09-03T07:49:10;2.00;2.00;2.00
23240;PMS7003;11789;53.482;9.862;2022-09-03T07:51:36;3.00;3.00;2.25
23240;PMS7003;11789;53.482;9.862;2022-09-03T07:54:03;2.25;2.25;2.00
23240;PMS7003;11789;53.482;9.862;2022-09-03T07:56:31;3.00;3.00;2.75
23240;PMS7003;11789;53.482;9.862;2022-09-03T07:58:59;3.25;3.25;3.00
23240;PMS7003;11789;53.482;9.862;2022-09-03T08:01:25;2.00;2.00;2.00
23240;PMS7003;11789;53.482;9.862;2022-09-03T08:03:52;2.50;2.50;2.00
23240;PMS7003;11789;53.482;9.862;2022-09-03T08:06:20;3.00;3.00;3.00
23240;PMS7003;11789;53.482;9.862;2022-09-03T08:08:47;2.50;2.50;2.50
23240;PMS7003;11789;53.482;9.862;2022-09-03T08:13:41;3.00;3.00;2.75
23240;PMS7003;11789;53.482;9.862;2022-09-03T08:16:12;2.75;2.75;2.00
23240;PMS7003;11789;53.482;9.862;2022-09-03T08:18:39;6.00;2.50;2.00
23240;PMS7003;11789;53.482;9.862;2022-09-03T08:21:09;2.00;2.00;2.00
23240;PMS7003;11789;53.482;9.862;2022-09-03T08:23:40;3.25;2.00;2.00
23240;PMS7003;11789;53.482;9.862;2022-09-03T08:26:07;2.25;2.25;2.00
23240;PMS7003;11789;53.482;9.862;2022-09-03T08:28:33;3.75;3.75;3.00
23240;PMS7003;11789;53.482;9.862;2022-09-03T08:31:04;3.75;3.00;2.00
23240;PMS7003;11789;53.482;9.862;2022-09-03T08:33:40;2.75;2.75;2.25
23240;PMS7003;11789;53.482;9.862;2022-09-03T08:36:09;3.00;3.00;3.00
23240;PMS7003;11789;53.482;9.862;2022-09-03T08:38:39;3.00;3.00;2.00
23240;PMS7003;11789;53.482;9.862;2022-09-03T08:43:38;3.00;3.00;2.00
23240;PMS7003;11789;53.482;9.862;2022-09-03T08:46:10;2.50;2.50;2.00
23240;PMS7003;11789;53.482;9.862;2022-09-03T08:48:36;4.25;3.00;2.25
23240;PMS7003;11789;53.482;9.862;2022-09-03T08:51:02;2.00;2.00;2.00
23240;PMS7003;11789;53.482;9.862;2022-09-03T08:56:26;2.00;2.00;1.50
23240;PMS7003;11789;53.482;9.862;2022-09-03T08:58:55;5.00;2.00;2.00
23240;PMS7003;11789;53.482;9.862;2022-09-03T09:01:46;2.25;2.25;2.25
23240;PMS7003;11789;53.482;9.862;2022-09-03T09:06:58;2.00;2.00;2.00
23240;PMS7003;11789;53.482;9.862;2022-09-03T09:10:02;3.00;3.00;3.00
23240;PMS7003;11789;53.482;9.862;2022-09-03T09:13:02;2.00;2.00;2.00
23240;PMS7003;11789;53.482;9.862;2022-09-03T09:15:33;3.00;3.00;2.50
23240;PMS7003;11789;53.482;9.862;2022-09-03T09:21:14;2.25;2.25;2.00
23240;PMS7003;11789;53.482;9.862;2022-09-03T09:23:46;2.00;2.00;2.00
23240;PMS7003;11789;53.482;9.862;2022-09-03T09:26:17;2.25;2.25;2.00
23240;PMS7003;11789;53.482;9.862;2022-09-03T09:28:46;2.75;1.25;1.25
23240;PMS7003;11789;53.482;9.862;2022-09-03T09:31:18;3.50;3.50;3.00
23240;PMS7003;11789;53.482;9.862;2022-09-03T09:33:44;2.50;2.00;2.00
23240;PMS7003;11789;53.482;9.862;2022-09-03T09:36:14;3.00;3.00;2.50
23240;PMS7003;11789;53.482;9.862;2022-09-03T09:38:43;2.50;2.25;2.00
23240;PMS7003;11789;53.482;9.862;2022-09-03T09:41:14;2.50;2.50;2.00
23240;PMS7003;11789;53.482;9.862;2022-09-03T09:43:41;2.50;2.50;2.25
23240;PMS7003;11789;53.482;9.862;2022-09-03T09:46:11;2.25;2.25;2.00
23240;PMS7003;11789;53.482;9.862;2022-09-03T09:48:38;3.00;3.00;3.00
23240;PMS7003;11789;53.482;9.862;2022-09-03T09:51:13;2.67;2.67;1.67
23240;PMS7003;11789;53.482;9.862;2022-09-03T09:53:58;3.00;3.00;3.00
23240;PMS7003;11789;53.482;9.862;2022-09-03T09:56:26;2.00;2.00;2.00
23240;PMS7003;11789;53.482;9.862;2022-09-03T09:59:01;1.75;1.75;1.00
23240;PMS7003;11789;53.482;9.862;2022-09-03T10:01:31;2.00;2.00;1.50
23240;PMS7003;11789;53.482;9.862;2022-09-03T10:03:58;5.00;3.25;3.00
23240;PMS7003;11789;53.482;9.862;2022-09-03T10:06:32;2.00;2.00;2.00
23240;PMS7003;11789;53.482;9.862;2022-09-03T10:09:19;2.00;2.00;2.00
23240;PMS7003;11789;53.482;9.862;2022-09-03T10:11:50;2.50;2.00;1.75
23240;PMS7003;11789;53.482;9.862;2022-09-03T10:20:18;3.00;3.00;2.67
23240;PMS7003;11789;53.482;9.862;2022-09-03T10:23:00;2.25;2.25;2.25
23240;PMS7003;11789;53.482;9.862;2022-09-03T10:25:33;2.00;2.00;2.00
23240;PMS7003;11789;53.482;9.862;2022-09-03T10:28:07;2.00;2.00;2.00
23240;PMS7003;11789;53.482;9.862;2022-09-03T10:30:55;2.50;2.00;2.00
23240;PMS7003;11789;53.482;9.862;2022-09-03T10:33:26;3.00;3.00;3.00
23240;PMS7003;11789;53.482;9.862;2022-09-03T10:36:03;2.00;2.00;2.00
23240;PMS7003;11789;53.482;9.862;2022-09-03T10:38:39;2.25;2.25;2.00
23240;PMS7003;11789;53.482;9.862;2022-09-03T10:47:04;2.25;2.25;2.00
23240;PMS7003;11789;53.482;9.862;2022-09-03T10:49:40;2.00;2.00;2.00
23240;PMS7003;11789;53.482;9.862;2022-09-03T11:00:08;3.33;3.00;2.67
23240;PMS7003;11789;53.482;9.862;2022-09-03T11:05:06;2.50;2.50;2.25
23240;PMS7003;11789;53.482;9.862;2022-09-03T11:07:59;2.00;2.00;2.00
23240;PMS7003;11789;53.482;9.862;2022-09-03T11:10:31;3.00;3.00;2.00
23240;PMS7003;11789;53.482;9.862;2022-09-03T11:16:16;2.50;2.00;2.00
23240;PMS7003;11789;53.482;9.862;2022-09-03T11:19:05;3.00;3.00;3.00
23240;PMS7003;11789;53.482;9.862;2022-09-03T11:21:35;2.00;2.00;2.00
23240;PMS7003;11789;53.482;9.862;2022-09-03T11:24:21;2.00;2.00;2.00
23240;PMS7003;11789;53.482;9.862;2022-09-03T11:29:57;3.00;3.00;2.00
23240;PMS7003;11789;53.482;9.862;2022-09-03T11:35:23;3.00;3.00;2.33
23240;PMS7003;11789;53.482;9.862;2022-09-03T11:40:19;4.33;2.00;2.00
23240;PMS7003;11789;53.482;9.862;2022-09-03T11:42:46;4.00;2.67;2.00
23240;PMS7003;11789;53.482;9.862;2022-09-03T11:47:43;2.00;2.00;2.00
23240;PMS7003;11789;53.482;9.862;2022-09-03T12:00:57;3.00;3.00;3.00
23240;PMS7003;11789;53.482;9.862;2022-09-03T12:03:36;5.00;3.50;2.75
23240;PMS7003;11789;53.482;9.862;2022-09-03T12:14:51;2.00;2.00;2.00
23240;PMS7003;11789;53.482;9.862;2022-09-03T12:20:39;3.50;3.50;3.25
23240;PMS7003;11789;53.482;9.862;2022-09-03T12:23:06;3.00;3.00;3.00
23240;PMS7003;11789;53.482;9.862;2022-09-03T12:25:35;3.00;3.00;2.00
23240;PMS7003;11789;53.482;9.862;2022-09-03T12:28:12;4.00;2.67;2.00
23240;PMS7003;11789;53.482;9.862;2022-09-03T12:30:43;4.00;2.75;2.00
23240;PMS7003;11789;53.482;9.862;2022-09-03T12:33:10;2.33;2.33;2.33
23240;PMS7003;11789;53.482;9.862;2022-09-03T12:35:38;2.67;2.67;2.00
23240;PMS7003;11789;53.482;9.862;2022-09-03T12:38:03;2.00;2.00;1.00
23240;PMS7003;11789;53.482;9.862;2022-09-03T12:40:29;2.33;2.33;2.00
23240;PMS7003;11789;53.482;9.862;2022-09-03T12:42:55;4.00;2.00;2.00
23240;PMS7003;11789;53.482;9.862;2022-09-03T12:45:41;2.00;2.00;2.00
23240;PMS7003;11789;53.482;9.862;2022-09-03T12:48:12;2.67;2.67;2.00
23240;PMS7003;11789;53.482;9.862;2022-09-03T12:50:42;2.00;2.00;2.00
23240;PMS7003;11789;53.482;9.862;2022-09-03T12:53:10;4.33;2.00;2.00
23240;PMS7003;11789;53.482;9.862;2022-09-03T12:55:45;2.00;2.00;2.00
23240;PMS7003;11789;53.482;9.862;2022-09-03T12:58:16;2.00;2.00;2.00
23240;PMS7003;11789;53.482;9.862;2022-09-03T13:00:56;2.33;2.33;2.33
23240;PMS7003;11789;53.482;9.862;2022-09-03T13:06:14;2.33;2.33;2.00
23240;PMS7003;11789;53.482;9.862;2022-09-03T13:08:51;2.00;2.00;2.00
23240;PMS7003;11789;53.482;9.862;2022-09-03T13:11:19;4.00;2.00;2.00
23240;PMS7003;11789;53.482;9.862;2022-09-03T13:14:06;1.33;1.33;1.00
23240;PMS7003;11789;53.482;9.862;2022-09-03T13:19:17;2.67;2.00;2.00
23240;PMS7003;11789;53.482;9.862;2022-09-03T13:21:54;2.00;2.00;2.00
23240;PMS7003;11789;53.482;9.862;2022-09-03T13:35:14;3.00;3.00;3.00
23240;PMS7003;11789;53.482;9.862;2022-09-03T13:37:51;5.00;3.33;3.33
23240;PMS7003;11789;53.482;9.862;2022-09-03T13:42:57;5.00;4.00;3.00
23240;PMS7003;11789;53.482;9.862;2022-09-03T13:48:37;4.00;4.00;3.00
23240;PMS7003;11789;53.482;9.862;2022-09-03T13:54:22;2.00;2.00;2.00
23240;PMS7003;11789;53.482;9.862;2022-09-03T13:57:06;2.00;2.00;2.00
23240;PMS7003;11789;53.482;9.862;2022-09-03T13:59:46;3.33;3.33;2.33
23240;PMS7003;11789;53.482;9.862;2022-09-03T14:07:55;3.00;3.00;2.00
23240;PMS7003;11789;53.482;9.862;2022-09-03T14:10:43;2.00;2.00;2.00
23240;PMS7003;11789;53.482;9.862;2022-09-03T14:13:21;3.33;1.00;1.00
23240;PMS7003;11789;53.482;9.862;2022-09-03T14:19:06;5.33;3.00;2.67
23240;PMS7003;11789;53.482;9.862;2022-09-03T14:21:57;3.33;3.33;3.00
23240;PMS7003;11789;53.482;9.862;2022-09-03T14:24:27;3.00;3.00;3.00
23240;PMS7003;11789;53.482;9.862;2022-09-03T14:27:04;3.00;3.00;3.00
23240;PMS7003;11789;53.482;9.862;2022-09-03T14:29:32;3.00;3.00;2.33
23240;PMS7003;11789;53.482;9.862;2022-09-03T14:34:33;3.00;3.00;3.00
23240;PMS7003;11789;53.482;9.862;2022-09-03T14:39:52;3.00;3.00;3.00
23240;PMS7003;11789;53.482;9.862;2022-09-03T14:50:58;2.00;2.00;2.00
23240;PMS7003;11789;53.482;9.862;2022-09-03T14:56:54;1.67;1.67;1.00
23240;PMS7003;11789;53.482;9.862;2022-09-03T14:59:31;3.00;3.00;3.00
23240;PMS7003;11789;53.482;9.862;2022-09-03T15:07:25;2.00;2.00;2.00
23240;PMS7003;11789;53.482;9.862;2022-09-03T15:12:33;2.00;2.00;2.00
23240;PMS7003;11789;53.482;9.862;2022-09-03T15:15:11;4.67;3.00;3.00
23240;PMS7003;11789;53.482;9.862;2022-09-03T15:20:51;2.00;2.00;2.00
23240;PMS7003;11789;53.482;9.862;2022-09-03T15:26:18;2.67;2.67;2.00
23240;PMS7003;11789;53.482;9.862;2022-09-03T15:31:26;2.67;2.67;2.00
23240;PMS7003;11789;53.482;9.862;2022-09-03T15:34:02;2.00;2.00;1.33
23240;PMS7003;11789;53.482;9.862;2022-09-03T15:36:37;3.67;2.00;1.67
23240;PMS7003;11789;53.482;9.862;2022-09-03T15:39:21;2.00;2.00;2.00
23240;PMS7003;11789;53.482;9.862;2022-09-03T15:41:57;2.33;2.33;2.00
23240;PMS7003;11789;53.482;9.862;2022-09-03T15:44:27;3.33;2.00;2.00
23240;PMS7003;11789;53.482;9.862;2022-09-03T15:47:05;3.00;3.00;2.00
23240;PMS7003;11789;53.482;9.862;2022-09-03T15:52:07;3.00;3.00;2.33
23240;PMS7003;11789;53.482;9.862;2022-09-03T15:54:58;2.33;2.33;2.00
23240;PMS7003;11789;53.482;9.862;2022-09-03T16:00:29;3.00;3.00;2.25
23240;PMS7003;11789;53.482;9.862;2022-09-03T16:03:07;1.00;1.00;1.00
23240;PMS7003;11789;53.482;9.862;2022-09-03T16:13:37;1.00;1.00;1.00
23240;PMS7003;11789;53.482;9.862;2022-09-03T16:16:18;1.00;1.00;0.33
23240;PMS7003;11789;53.482;9.862;2022-09-03T16:24:48;2.00;2.00;2.00
23240;PMS7003;11789;53.482;9.862;2022-09-03T16:27:22;2.00;2.00;2.00
23240;PMS7003;11789;53.482;9.862;2022-09-03T16:30:01;1.67;1.67;1.67
23240;PMS7003;11789;53.482;9.862;2022-09-03T16:32:45;2.00;2.00;2.00
23240;PMS7003;11789;53.482;9.862;2022-09-03T16:38:42;2.00;2.00;2.00
23240;PMS7003;11789;53.482;9.862;2022-09-03T16:41:34;1.00;1.00;1.00
23240;PMS7003;11789;53.482;9.862;2022-09-03T16:47:06;2.50;2.00;2.00
23240;PMS7003;11789;53.482;9.862;2022-09-03T16:49:59;3.00;2.00;2.00
23240;PMS7003;11789;53.482;9.862;2022-09-03T17:09:18;1.00;1.00;1.00
23240;PMS7003;11789;53.482;9.862;2022-09-03T17:19:49;1.67;1.67;1.67
23240;PMS7003;11789;53.482;9.862;2022-09-03T17:22:38;2.00;2.00;2.00
23240;PMS7003;11789;53.482;9.862;2022-09-03T17:25:34;2.25;2.00;2.00
23240;PMS7003;11789;53.482;9.862;2022-09-03T17:28:05;3.00;1.00;1.00
23240;PMS7003;11789;53.482;9.862;2022-09-03T17:30:56;2.00;2.00;2.00
23240;PMS7003;11789;53.482;9.862;2022-09-03T17:36:23;4.00;2.00;2.00
23240;PMS7003;11789;53.482;9.862;2022-09-03T17:42:28;2.75;2.75;2.25
23240;PMS7003;11789;53.482;9.862;2022-09-03T17:47:46;4.50;3.00;3.00
23240;PMS7003;11789;53.482;9.862;2022-09-03T17:56:00;4.00;3.00;2.50
23240;PMS7003;11789;53.482;9.862;2022-09-03T17:58:50;2.00;2.00;2.00
23240;PMS7003;11789;53.482;9.862;2022-09-03T18:01:23;3.00;3.00;2.50
23240;PMS7003;11789;53.482;9.862;2022-09-03T18:09:08;3.25;3.25;3.00
23240;PMS7003;11789;53.482;9.862;2022-09-03T18:12:02;4.00;4.00;3.00
23240;PMS7003;11789;53.482;9.862;2022-09-03T18:17:24;5.00;3.25;3.00
23240;PMS7003;11789;53.482;9.862;2022-09-03T18:19:59;3.50;3.50;3.00
23240;PMS7003;11789;53.482;9.862;2022-09-03T18:23:01;3.00;3.00;3.00
23240;PMS7003;11789;53.482;9.862;2022-09-03T18:25:52;3.25;3.25;3.00
23240;PMS7003;11789;53.482;9.862;2022-09-03T18:28:44;5.00;3.75;3.25
23240;PMS7003;11789;53.482;9.862;2022-09-03T18:31:32;4.00;2.25;2.00
23240;PMS7003;11789;53.482;9.862;2022-09-03T18:34:17;3.00;3.00;3.00
23240;PMS7003;11789;53.482;9.862;2022-09-03T18:37:04;4.00;4.00;3.00
23240;PMS7003;11789;53.482;9.862;2022-09-03T18:39:49;4.00;4.00;3.25
23240;PMS7003;11789;53.482;9.862;2022-09-03T18:42:43;3.25;3.25;3.25
23240;PMS7003;11789;53.482;9.862;2022-09-03T18:52:03;5.00;5.00;4.00
23240;PMS7003;11789;53.482;9.862;2022-09-03T19:01:15;4.50;4.50;4.00
23240;PMS7003;11789;53.482;9.862;2022-09-03T19:07:20;3.25;3.25;2.75
23240;PMS7003;11789;53.482;9.862;2022-09-03T19:10:09;4.75;4.75;4.50
23240;PMS7003;11789;53.482;9.862;2022-09-03T19:16:06;6.00;5.25;5.00
23240;PMS7003;11789;53.482;9.862;2022-09-03T19:19:10;5.75;4.25;4.00
23240;PMS7003;11789;53.482;9.862;2022-09-03T19:22:38;6.25;6.25;6.00
23240;PMS7003;11789;53.482;9.862;2022-09-03T19:25:24;6.50;6.50;4.75
23240;PMS7003;11789;53.482;9.862;2022-09-03T19:28:23;6.00;6.00;5.00
23240;PMS7003;11789;53.482;9.862;2022-09-03T19:36:59;5.00;5.00;4.00
23240;PMS7003;11789;53.482;9.862;2022-09-03T19:39:51;4.50;4.50;4.00
23240;PMS7003;11789;53.482;9.862;2022-09-03T19:42:51;4.25;4.25;4.00
23240;PMS7003;11789;53.482;9.862;2022-09-03T19:54:52;6.00;4.00;3.25
23240;PMS7003;11789;53.482;9.862;2022-09-03T19:57:38;5.00;5.00;5.00
23240;PMS7003;11789;53.482;9.862;2022-09-03T20:00:24;7.00;5.75;5.00
23240;PMS7003;11789;53.482;9.862;2022-09-03T20:03:10;7.00;5.00;5.00
23240;PMS7003;11789;53.482;9.862;2022-09-03T20:05:56;8.25;7.00;6.00
23240;PMS7003;11789;53.482;9.862;2022-09-03T20:08:42;6.75;6.75;5.00